createdAt,value
2022-09-10T00:01:22.481Z,16.03
2022-09-10T00:03:50.988Z,16.05
2022-09-10T00:06:20.178Z,16.10
2022-09-10T00:08:49.342Z,16.11
2022-09-10T00:11:17.544Z,16.07
2022-09-10T00:13:45.776Z,16.02
2022-09-10T00:16:19.106Z,16.04
2022-09-10T00:18:48.395Z,15.98
2022-09-10T00:21:18.919Z,15.98
2022-09-10T00:23:46.931Z,16.00
2022-09-10T00:26:19.171Z,16.04
2022-09-10T00:28:47.292Z,16.00
2022-09-10T00:31:16.959Z,16.03
2022-09-10T00:33:45.015Z,15.95
2022-09-10T00:36:17.183Z,15.96
2022-09-10T00:38:45.179Z,15.90
2022-09-10T00:41:13.861Z,15.90
2022-09-10T00:43:51.717Z,15.83
2022-09-10T00:46:27.699Z,15.79
2022-09-10T00:48:58.548Z,15.80
2022-09-10T00:51:31.078Z,15.83
2022-09-10T00:54:00.248Z,15.72
2022-09-10T00:56:28.977Z,15.75
2022-09-10T00:58:57.442Z,15.64
2022-09-10T01:01:27.125Z,15.83
2022-09-10T01:03:56.911Z,15.89
2022-09-10T01:06:25.265Z,15.85
2022-09-10T01:08:53.652Z,15.84
2022-09-10T01:11:37.843Z,16.00
2022-09-10T01:14:25.868Z,16.03
2022-09-10T01:17:03.571Z,16.04
2022-09-10T01:20:17.193Z,16.02
2022-09-10T01:23:15.693Z,16.05
2022-09-10T01:25:58.605Z,16.09
2022-09-10T01:28:35.092Z,16.00
2022-09-10T01:31:06.982Z,15.96
2022-09-10T01:33:39.034Z,15.97
2022-09-10T01:36:13.352Z,15.90
2022-09-10T01:38:42.965Z,15.85
2022-09-10T01:41:11.197Z,15.83
2022-09-10T01:43:42.054Z,15.75
2022-09-10T01:46:22.168Z,15.75
2022-09-10T01:49:14.817Z,15.65
2022-09-10T01:52:01.925Z,15.43
2022-09-10T01:54:41.931Z,15.33
2022-09-10T01:57:19.516Z,15.24
2022-09-10T01:59:55.528Z,15.27
2022-09-10T02:02:29.005Z,15.18
2022-09-10T02:04:58.488Z,15.21
2022-09-10T02:07:29.338Z,15.14
2022-09-10T02:09:57.501Z,15.18
2022-09-10T02:12:25.534Z,15.16
2022-09-10T02:14:57.155Z,15.18
2022-09-10T02:17:31.170Z,15.14
2022-09-10T02:20:00.720Z,15.03
2022-09-10T02:22:31.781Z,15.18
2022-09-10T02:24:59.796Z,15.18
2022-09-10T02:27:30.108Z,15.16
2022-09-10T02:29:59.823Z,15.19
2022-09-10T02:32:28.422Z,15.18
2022-09-10T02:34:56.434Z,15.19
2022-09-10T02:37:24.486Z,15.15
2022-09-10T02:39:52.585Z,15.15
2022-09-10T02:42:20.662Z,15.22
2022-09-10T02:44:49.878Z,15.17
2022-09-10T02:47:19.334Z,15.15
2022-09-10T02:49:47.447Z,15.13
2022-09-10T02:52:15.673Z,15.09
2022-09-10T02:54:43.963Z,15.09
2022-09-10T02:57:12.354Z,15.11
2022-09-10T02:59:40.378Z,15.13
2022-09-10T03:02:08.428Z,15.03
2022-09-10T03:04:38.039Z,15.04
2022-09-10T03:07:06.109Z,15.02
2022-09-10T03:09:35.750Z,15.00
2022-09-10T03:12:04.007Z,14.87
2022-09-10T03:14:32.033Z,14.94
2022-09-10T03:17:00.363Z,15.00
2022-09-10T03:19:28.356Z,14.98
2022-09-10T03:21:57.802Z,14.82
2022-09-10T03:24:26.166Z,14.77
2022-09-10T03:26:54.215Z,14.69
2022-09-10T03:29:23.231Z,14.69
2022-09-10T03:31:52.539Z,14.63
2022-09-10T03:34:20.561Z,14.65
2022-09-10T03:36:48.768Z,14.49
2022-09-10T03:39:19.030Z,14.53
2022-09-10T03:41:48.037Z,14.56
2022-09-10T03:44:17.298Z,14.53
2022-09-10T03:46:45.817Z,14.48
2022-09-10T03:49:13.809Z,14.46
2022-09-10T03:51:41.833Z,14.41
2022-09-10T03:54:09.969Z,14.43
2022-09-10T03:56:39.894Z,14.39
2022-09-10T03:59:07.939Z,14.26
2022-09-10T04:01:37.104Z,14.37
2022-09-10T04:04:05.106Z,14.26
2022-09-10T04:06:33.536Z,14.35
2022-09-10T04:09:02.464Z,14.33
2022-09-10T04:11:30.818Z,14.32
2022-09-10T04:14:00.345Z,14.33
2022-09-10T04:16:28.395Z,14.17
2022-09-10T04:18:56.403Z,14.11
2022-09-10T04:21:24.744Z,14.10
2022-09-10T04:23:55.543Z,14.10
2022-09-10T04:26:24.090Z,14.12
2022-09-10T04:28:52.644Z,14.16
2022-09-10T04:31:22.109Z,14.17
2022-09-10T04:33:50.189Z,14.16
2022-09-10T04:36:18.249Z,14.19
2022-09-10T04:38:46.226Z,14.09
2022-09-10T04:41:15.663Z,14.06
2022-09-10T04:43:43.704Z,14.05
2022-09-10T04:46:11.798Z,14.16
2022-09-10T04:48:41.213Z,14.18
2022-09-10T04:51:17.792Z,14.15
2022-09-10T04:53:46.647Z,14.21
2022-09-10T04:56:15.168Z,14.19
2022-09-10T04:58:44.318Z,14.20
2022-09-10T05:01:12.741Z,14.10
2022-09-10T05:03:42.137Z,14.17
2022-09-10T05:06:10.278Z,14.25
2022-09-10T05:08:38.487Z,14.17
2022-09-10T05:11:06.747Z,14.23
2022-09-10T05:13:34.756Z,14.27
2022-09-10T05:16:03.061Z,14.25
2022-09-10T05:18:31.329Z,14.26
2022-09-10T05:21:00.815Z,14.26
2022-09-10T05:23:28.837Z,14.29
2022-09-10T05:25:57.416Z,14.26
2022-09-10T05:28:25.458Z,14.27
2022-09-10T05:30:53.474Z,14.23
2022-09-10T05:33:21.511Z,14.20
2022-09-10T05:35:51.797Z,14.23
2022-09-10T05:38:21.504Z,14.23
2022-09-10T05:40:50.489Z,14.33
2022-09-10T05:43:18.471Z,14.30
2022-09-10T05:45:47.325Z,14.25
2022-09-10T05:48:15.385Z,14.30
2022-09-10T05:50:45.654Z,14.28
2022-09-10T05:53:13.810Z,14.30
2022-09-10T05:55:44.033Z,14.29
2022-09-10T05:58:13.687Z,14.20
2022-09-10T06:00:44.086Z,14.27
2022-09-10T06:03:12.796Z,14.21
2022-09-10T06:05:40.869Z,14.08
2022-09-10T06:08:09.264Z,14.19
2022-09-10T06:10:37.392Z,14.22
2022-09-10T06:13:07.265Z,14.18
2022-09-10T06:15:36.208Z,14.18
2022-09-10T06:18:04.211Z,14.25
2022-09-10T06:20:32.196Z,14.15
2022-09-10T06:23:00.247Z,14.21
2022-09-10T06:25:28.266Z,14.28
2022-09-10T06:27:56.583Z,14.21
2022-09-10T06:30:26.148Z,14.28
2022-09-10T06:32:54.283Z,14.30
2022-09-10T06:35:22.252Z,14.31
2022-09-10T06:37:50.356Z,14.32
2022-09-10T06:40:18.679Z,14.28
2022-09-10T06:42:46.768Z,14.30
2022-09-10T06:45:15.001Z,14.38
2022-09-10T06:50:32.353Z,14.33
2022-09-10T06:53:00.372Z,14.33
2022-09-10T06:55:28.376Z,14.07
2022-09-10T06:57:56.576Z,14.35
2022-09-10T07:00:24.555Z,14.30
2022-09-10T07:02:54.832Z,14.31
2022-09-10T07:05:22.832Z,14.23
2022-09-10T07:07:50.853Z,14.32
2022-09-10T07:10:18.855Z,14.34
2022-09-10T07:12:46.856Z,14.31
2022-09-10T07:15:15.016Z,14.33
2022-09-10T07:17:43.039Z,14.27
2022-09-10T07:20:13.176Z,14.43
2022-09-10T07:22:43.912Z,14.43
2022-09-10T07:25:12.884Z,14.53
2022-09-10T07:27:40.880Z,14.50
2022-09-10T07:30:09.873Z,14.51
2022-09-10T07:32:37.875Z,14.51
2022-09-10T07:35:07.575Z,14.50
2022-09-10T07:37:37.163Z,14.48
2022-09-10T07:40:05.639Z,14.43
2022-09-10T07:42:33.666Z,14.46
2022-09-10T07:45:01.611Z,14.45
2022-09-10T07:47:29.625Z,14.48
2022-09-10T07:49:57.742Z,14.55
2022-09-10T07:52:25.989Z,14.51
2022-09-10T07:54:55.491Z,14.47
2022-09-10T07:57:23.472Z,14.31
2022-09-10T07:59:51.427Z,14.27
2022-09-10T08:02:19.495Z,14.40
2022-09-10T08:04:47.652Z,14.33
2022-09-10T08:07:17.368Z,14.33
2022-09-10T08:09:45.411Z,14.42
2022-09-10T08:12:14.806Z,14.38
2022-09-10T08:14:42.787Z,14.34
2022-09-10T08:17:11.038Z,14.35
2022-09-10T08:19:39.617Z,14.33
2022-09-10T08:22:12.803Z,14.29
2022-09-10T08:24:41.575Z,14.42
2022-09-10T08:28:12.499Z,14.41
2022-09-10T08:30:42.110Z,14.40
2022-09-10T08:33:10.170Z,14.51
2022-09-10T08:35:38.583Z,14.52
2022-09-10T08:38:06.693Z,14.61
2022-09-10T08:40:34.718Z,14.67
2022-09-10T08:43:03.305Z,14.49
2022-09-10T08:45:34.264Z,14.45
2022-09-10T08:48:09.357Z,14.45
2022-09-10T08:50:42.814Z,14.47
2022-09-10T08:53:25.992Z,14.50
2022-09-10T08:55:57.875Z,14.59
2022-09-10T08:58:29.914Z,14.59
2022-09-10T09:01:03.869Z,14.62
2022-09-10T09:03:39.557Z,14.83
2022-09-10T09:06:18.926Z,14.85
2022-09-10T09:08:50.174Z,14.83
2022-09-10T09:11:28.230Z,14.80
2022-09-10T09:14:09.749Z,14.80
2022-09-10T09:17:06.707Z,14.60
2022-09-10T09:19:45.853Z,14.64
2022-09-10T09:22:19.804Z,14.55
2022-09-10T09:24:56.665Z,14.49
2022-09-10T09:27:27.837Z,14.60
2022-09-10T09:30:00.368Z,14.63
2022-09-10T09:32:34.328Z,14.58
2022-09-10T09:35:10.775Z,14.41
2022-09-10T09:37:43.407Z,14.36
2022-09-10T09:40:17.960Z,14.70
2022-09-10T09:42:53.294Z,14.68
2022-09-10T09:45:28.469Z,14.83
2022-09-10T09:47:57.220Z,14.83
2022-09-10T09:50:26.810Z,15.06
2022-09-10T09:52:56.670Z,15.13
2022-09-10T09:55:37.096Z,15.23
2022-09-10T09:58:31.704Z,15.27
2022-09-10T10:01:14.689Z,15.30
2022-09-10T10:03:59.163Z,15.48
2022-09-10T10:06:32.718Z,15.64
2022-09-10T10:09:03.930Z,15.71
2022-09-10T10:11:46.371Z,15.78
2022-09-10T10:14:30.515Z,15.80
2022-09-10T10:17:01.079Z,15.97
2022-09-10T10:19:32.805Z,16.07
2022-09-10T10:22:21.515Z,16.24
2022-09-10T10:24:51.581Z,16.45
2022-09-10T10:27:24.704Z,16.67
2022-09-10T10:29:55.470Z,17.36
2022-09-10T10:32:31.784Z,17.67
2022-09-10T10:35:12.395Z,17.92
2022-09-10T10:37:52.558Z,17.80
2022-09-10T10:40:30.542Z,17.57
2022-09-10T10:43:10.557Z,17.70
2022-09-10T10:45:49.277Z,18.24
2022-09-10T10:48:26.107Z,17.96
2022-09-10T10:51:00.097Z,17.36
2022-09-10T10:53:47.481Z,17.38
2022-09-10T10:56:21.404Z,17.70
2022-09-10T10:59:23.152Z,17.87
2022-09-10T11:01:55.936Z,18.08
2022-09-10T11:04:32.033Z,17.68
2022-09-10T11:07:04.579Z,17.55
2022-09-10T11:09:41.092Z,17.92
2022-09-10T11:12:15.951Z,17.64
2022-09-10T11:14:50.060Z,17.85
2022-09-10T11:17:22.258Z,18.05
2022-09-10T11:20:28.053Z,17.86
2022-09-10T11:23:03.979Z,18.00
2022-09-10T11:25:38.584Z,18.03
2022-09-10T11:28:21.419Z,18.05
2022-09-10T11:30:56.263Z,18.14
2022-09-10T11:33:32.346Z,18.34
2022-09-10T11:36:08.200Z,18.56
2022-09-10T11:38:53.186Z,19.34
2022-09-10T11:41:25.317Z,19.67
2022-09-10T11:44:01.457Z,20.04
2022-09-10T11:46:36.645Z,20.00
2022-09-10T11:49:12.394Z,20.03
2022-09-10T11:51:42.247Z,20.18
2022-09-10T11:54:14.627Z,20.32
2022-09-10T11:56:53.768Z,20.45
2022-09-10T11:59:35.634Z,20.21
2022-09-10T12:02:38.253Z,20.17
2022-09-10T12:05:19.741Z,19.84
2022-09-10T12:08:01.297Z,19.26
2022-09-10T12:10:37.058Z,19.49
2022-09-10T12:13:11.737Z,19.40
2022-09-10T12:15:41.036Z,19.14
2022-09-10T12:18:16.539Z,19.34
2022-09-10T12:20:51.150Z,19.38
2022-09-10T12:23:26.264Z,19.55
2022-09-10T12:25:59.859Z,19.52
2022-09-10T12:28:46.572Z,19.53
2022-09-10T12:31:17.405Z,19.34
2022-09-10T12:34:12.440Z,19.57
2022-09-10T12:37:17.284Z,19.56
2022-09-10T12:39:45.646Z,19.61
2022-09-10T12:42:30.324Z,19.70
2022-09-10T12:44:58.546Z,19.89
2022-09-10T12:47:50.434Z,20.09
2022-09-10T12:50:28.328Z,20.29
2022-09-10T12:53:21.122Z,21.03
2022-09-10T12:56:02.292Z,20.65
2022-09-10T12:58:54.401Z,20.53
2022-09-10T13:01:38.023Z,20.88
2022-09-10T13:04:24.759Z,20.52
2022-09-10T13:06:55.615Z,20.08
2022-09-10T13:09:27.618Z,20.12
2022-09-10T13:11:59.033Z,20.66
2022-09-10T13:14:31.665Z,21.34
2022-09-10T13:16:59.775Z,21.37
2022-09-10T13:19:53.657Z,21.72
2022-09-10T13:22:33.538Z,20.64
2022-09-10T13:25:05.032Z,20.12
2022-09-10T13:27:41.746Z,19.87
2022-09-10T13:30:18.490Z,19.69
2022-09-10T13:32:52.971Z,19.62
2022-09-10T13:35:51.949Z,19.31
2022-09-10T13:39:03.374Z,19.28
2022-09-10T13:41:58.136Z,19.06
2022-09-10T13:44:41.342Z,18.91
2022-09-10T13:47:14.957Z,18.90
2022-09-10T13:49:49.137Z,18.87
2022-09-10T13:52:22.791Z,18.18
2022-09-10T13:54:53.379Z,18.18
2022-09-10T13:57:29.584Z,18.33
2022-09-10T14:00:04.961Z,18.51
2022-09-10T14:02:44.001Z,18.42
2022-09-10T14:05:36.732Z,18.50
2022-09-10T14:08:11.771Z,18.42
2022-09-10T14:10:53.082Z,18.27
2022-09-10T14:13:26.335Z,18.41
2022-09-10T14:15:57.014Z,18.19
2022-09-10T14:18:32.909Z,18.18
2022-09-10T14:21:01.593Z,18.16
2022-09-10T14:23:31.252Z,18.23
2022-09-10T14:26:14.734Z,18.11
2022-09-10T14:29:01.431Z,18.11
2022-09-10T14:31:33.571Z,18.09
2022-09-10T14:34:32.283Z,18.08
2022-09-10T14:37:01.750Z,18.04
2022-09-10T14:39:30.753Z,18.01
2022-09-10T14:42:25.543Z,17.91
2022-09-10T14:44:55.112Z,17.85
2022-09-10T14:47:29.914Z,17.72
2022-09-10T14:50:27.002Z,17.48
2022-09-10T14:52:55.237Z,17.18
2022-09-10T14:55:25.373Z,16.64
2022-09-10T14:57:55.625Z,16.28
2022-09-10T15:00:24.196Z,15.49
2022-09-10T15:02:56.259Z,14.80
2022-09-10T15:05:26.529Z,14.82
2022-09-10T15:07:54.582Z,14.64
2022-09-10T15:10:22.696Z,14.74
2022-09-10T15:12:53.309Z,14.85
2022-09-10T15:15:22.087Z,14.86
2022-09-10T15:17:50.857Z,14.99
2022-09-10T15:20:19.034Z,14.97
2022-09-10T15:22:48.585Z,15.05
2022-09-10T15:25:33.030Z,15.03
2022-09-10T15:28:04.434Z,15.10
2022-09-10T15:30:32.458Z,15.02
2022-09-10T15:33:00.572Z,15.09
2022-09-10T15:35:28.878Z,15.01
2022-09-10T15:37:58.733Z,15.01
2022-09-10T15:40:26.739Z,15.07
2022-09-10T15:42:54.822Z,15.06
2022-09-10T15:45:22.807Z,15.07
2022-09-10T15:47:52.024Z,15.19
2022-09-10T15:50:20.041Z,15.26
2022-09-10T15:52:48.134Z,15.19
2022-09-10T15:55:19.566Z,15.19
2022-09-10T15:57:50.000Z,15.23
2022-09-10T16:00:18.577Z,15.31
2022-09-10T16:02:50.449Z,15.22
2022-09-10T16:05:19.814Z,15.26
2022-09-10T16:07:49.718Z,15.37
2022-09-10T16:10:19.886Z,15.34
2022-09-10T16:12:47.923Z,15.27
2022-09-10T16:15:16.095Z,15.35
2022-09-10T16:17:44.144Z,15.36
2022-09-10T16:20:12.193Z,15.24
2022-09-10T16:22:40.619Z,15.28
2022-09-10T16:25:12.259Z,15.27
2022-09-10T16:27:43.469Z,15.16
2022-09-10T16:30:13.573Z,15.28
2022-09-10T16:32:41.777Z,15.23
2022-09-10T16:35:10.544Z,15.25
2022-09-10T16:37:39.125Z,15.22
2022-09-10T16:40:09.786Z,15.15
2022-09-10T16:42:37.869Z,15.20
2022-09-10T16:45:12.182Z,15.26
2022-09-10T16:47:40.821Z,14.88
2022-09-10T16:50:10.127Z,15.09
2022-09-10T16:52:40.788Z,15.15
2022-09-10T16:55:09.342Z,15.06
2022-09-10T16:57:37.813Z,15.10
2022-09-10T17:00:09.560Z,15.06
2022-09-10T17:02:38.023Z,15.10
2022-09-10T17:05:06.908Z,15.14
2022-09-10T17:07:35.477Z,15.19
2022-09-10T17:10:03.534Z,15.18
2022-09-10T17:12:31.629Z,15.09
2022-09-10T17:15:14.087Z,14.98
2022-09-10T17:18:05.412Z,15.03
2022-09-10T17:20:39.371Z,15.05
2022-09-10T17:23:08.095Z,14.85
2022-09-10T17:25:39.105Z,14.83
2022-09-10T17:28:13.089Z,14.81
2022-09-10T17:30:51.998Z,14.75
2022-09-10T17:33:26.779Z,14.63
2022-09-10T17:35:57.965Z,14.88
2022-09-10T17:38:26.307Z,15.02
2022-09-10T17:40:58.320Z,14.74
2022-09-10T17:43:27.522Z,14.60
2022-09-10T17:45:56.106Z,15.07
2022-09-10T17:48:28.281Z,14.96
2022-09-10T17:50:56.608Z,14.90
2022-09-10T17:53:25.032Z,14.81
2022-09-10T17:55:53.381Z,14.92
2022-09-10T17:58:22.381Z,14.73
2022-09-10T18:00:50.456Z,14.86
2022-09-10T18:03:18.800Z,14.93
2022-09-10T18:05:48.236Z,14.81
2022-09-10T18:08:16.243Z,14.80
2022-09-10T18:10:45.354Z,14.83
2022-09-10T18:13:13.421Z,14.79
2022-09-10T18:15:43.597Z,14.74
2022-09-10T18:18:11.683Z,14.86
2022-09-10T18:20:39.758Z,14.93
2022-09-10T18:23:09.187Z,14.92
2022-09-10T18:25:38.477Z,14.93
2022-09-10T18:28:06.524Z,14.88
2022-09-10T18:30:34.562Z,14.82
2022-09-10T18:33:02.713Z,14.75
2022-09-10T18:35:31.515Z,14.75
2022-09-10T18:38:00.190Z,14.78
2022-09-10T18:40:29.666Z,14.80
2022-09-10T18:42:57.856Z,14.79
2022-09-10T18:45:25.963Z,14.69
2022-09-10T18:47:54.855Z,14.67
2022-09-10T18:50:26.608Z,14.74
2022-09-10T18:52:56.614Z,14.72
2022-09-10T18:55:26.278Z,14.80
2022-09-10T18:57:58.326Z,14.80
2022-09-10T19:00:26.436Z,14.74
2022-09-10T19:02:55.485Z,14.75
2022-09-10T19:05:23.471Z,14.81
2022-09-10T19:07:52.337Z,14.81
2022-09-10T19:10:21.628Z,14.83
2022-09-10T19:12:49.678Z,14.77
2022-09-10T19:15:19.245Z,14.83
2022-09-10T19:17:47.255Z,14.76
2022-09-10T19:20:15.318Z,14.69
2022-09-10T19:22:44.051Z,14.47
2022-09-10T19:25:11.998Z,14.54
2022-09-10T19:27:41.113Z,14.60
2022-09-10T19:30:10.163Z,14.56
2022-09-10T19:32:39.590Z,14.64
2022-09-10T19:35:08.005Z,14.65
2022-09-10T19:37:35.986Z,14.66
2022-09-10T19:40:04.551Z,14.66
2022-09-10T19:42:32.601Z,14.71
2022-09-10T19:45:00.573Z,14.73
2022-09-10T19:47:28.631Z,14.74
2022-09-10T19:49:59.150Z,14.72
2022-09-10T19:52:27.193Z,14.74
2022-09-10T19:54:55.142Z,14.73
2022-09-10T19:57:23.124Z,14.64
2022-09-10T19:59:51.092Z,14.65
2022-09-10T20:02:19.138Z,14.66
2022-09-10T20:04:47.164Z,14.67
2022-09-10T20:07:16.828Z,14.64
2022-09-10T20:09:44.878Z,14.69
2022-09-10T20:12:12.920Z,14.60
2022-09-10T20:14:40.885Z,14.63
2022-09-10T20:17:08.954Z,14.57
2022-09-10T20:19:37.014Z,14.59
2022-09-10T20:22:05.112Z,14.57
2022-09-10T20:24:34.675Z,14.63
2022-09-10T20:27:02.668Z,14.58
2022-09-10T20:29:32.984Z,14.60
2022-09-10T20:32:00.981Z,14.61
2022-09-10T20:34:28.949Z,14.61
2022-09-10T20:36:56.945Z,14.65
2022-09-10T20:39:26.040Z,14.65
2022-09-10T20:41:55.413Z,14.64
2022-09-10T20:44:23.590Z,14.61
2022-09-10T20:46:51.734Z,14.69
2022-09-10T20:49:20.373Z,14.72
2022-09-10T20:51:48.622Z,14.75
2022-09-10T20:54:18.633Z,14.71
2022-09-10T20:56:47.267Z,14.67
2022-09-10T20:59:17.793Z,14.69
2022-09-10T21:01:47.198Z,14.70
2022-09-10T21:04:15.718Z,14.70
2022-09-10T21:06:43.792Z,14.72
2022-09-10T21:09:12.993Z,14.66
2022-09-10T21:11:41.480Z,14.73
2022-09-10T21:14:10.462Z,14.69
2022-09-10T21:16:41.567Z,14.77
2022-09-10T21:19:12.495Z,14.74
2022-09-10T21:21:41.807Z,14.71
2022-09-10T21:24:12.397Z,14.78
2022-09-10T21:26:43.490Z,14.82
2022-09-10T21:29:14.475Z,14.79
2022-09-10T21:31:45.498Z,14.78
2022-09-10T21:34:14.660Z,14.83
2022-09-10T21:36:43.788Z,14.84
2022-09-10T21:39:14.715Z,14.79
2022-09-10T21:41:45.633Z,14.87
2022-09-10T21:44:15.493Z,14.71
2022-09-10T21:46:45.918Z,14.88
2022-09-10T21:49:14.667Z,14.84
2022-09-10T21:51:43.420Z,14.89
2022-09-10T21:54:15.450Z,14.89
2022-09-10T21:56:43.551Z,14.86
2022-09-10T21:59:13.004Z,14.79
2022-09-10T22:01:43.645Z,14.69
2022-09-10T22:04:16.820Z,14.72
2022-09-10T22:06:47.219Z,14.71
2022-09-10T22:09:16.992Z,14.68
2022-09-10T22:11:47.065Z,14.68
2022-09-10T22:14:16.645Z,14.63
2022-09-10T22:16:45.573Z,14.65
2022-09-10T22:19:18.149Z,14.65
2022-09-10T22:21:46.329Z,14.66
2022-09-10T22:24:18.023Z,14.57
2022-09-10T22:26:47.351Z,14.65
2022-09-10T22:29:18.357Z,14.58
2022-09-10T22:31:47.298Z,14.65
2022-09-10T22:34:18.180Z,14.64
2022-09-10T22:36:47.453Z,14.68
2022-09-10T22:39:17.657Z,14.62
2022-09-10T22:41:46.135Z,14.62
2022-09-10T22:44:15.101Z,14.54
2022-09-10T22:46:43.198Z,14.62
2022-09-10T22:49:11.550Z,14.60
2022-09-10T22:51:42.077Z,14.58
2022-09-10T22:54:11.583Z,14.58
2022-09-10T22:56:40.369Z,14.54
2022-09-10T22:59:08.737Z,14.55
2022-09-10T23:01:38.999Z,14.54
2022-09-10T23:04:09.015Z,14.57
2022-09-10T23:06:39.139Z,14.63
2022-09-10T23:09:10.578Z,14.59
2022-09-10T23:11:39.998Z,14.53
2022-09-10T23:14:13.095Z,14.59
2022-09-10T23:16:42.829Z,14.67
2022-09-10T23:19:13.200Z,14.69
2022-09-10T23:21:44.265Z,14.73
2022-09-10T23:24:16.353Z,14.80
2022-09-10T23:26:45.172Z,14.72
2022-09-10T23:29:14.292Z,14.74
2022-09-10T23:31:42.361Z,14.71
2022-09-10T23:34:13.216Z,14.75
2022-09-10T23:36:43.194Z,14.79
2022-09-10T23:39:15.426Z,14.68
2022-09-10T23:41:43.864Z,14.72
2022-09-10T23:44:12.491Z,14.75
2022-09-10T23:46:41.036Z,14.77
2022-09-10T23:49:09.411Z,14.77
2022-09-10T23:51:38.003Z,14.74
2022-09-10T23:54:06.462Z,14.79
2022-09-10T23:56:35.902Z,14.80
2022-09-10T23:59:04.767Z,14.79
